sensor_id;sensor_type;location;lat;lon;timestamp;pressure;altitude;pressure_sealevel;temperature;humidity
3464;BME280;3551;41.578;24.706;2023-02-28T00:00:28;91600.59;;;8.19;100.00
3464;BME280;3551;41.578;24.706;2023-02-28T00:03:05;91591.81;;;8.19;100.00
3464;BME280;3551;41.578;24.706;2023-02-28T00:31:56;91613.72;;;8.02;100.00
3464;BME280;3551;41.578;24.706;2023-02-28T00:35:03;91624.13;;;8.14;100.00
3464;BME280;3551;41.578;24.706;2023-02-28T00:38:36;91622.16;;;8.07;100.00
3464;BME280;3551;41.578;24.706;2023-02-28T00:41:45;91633.22;;;7.79;100.00
3464;BME280;3551;41.578;24.706;2023-02-28T00:44:54;91624.78;;;7.70;100.00
3464;BME280;3551;41.578;24.706;2023-02-28T00:47:46;91629.50;;;7.54;100.00
3464;BME280;3551;41.578;24.706;2023-02-28T00:50:56;91626.28;;;7.71;100.00
3464;BME280;3551;41.578;24.706;2023-02-28T00:54:00;91626.84;;;7.84;100.00
3464;BME280;3551;41.578;24.706;2023-02-28T00:56:58;91631.00;;;7.81;100.00
3464;BME280;3551;41.578;24.706;2023-02-28T01:00:13;91634.09;;;7.87;100.00
3464;BME280;3551;41.578;24.706;2023-02-28T01:18:29;91648.97;;;7.91;100.00
3464;BME280;3551;41.578;24.706;2023-02-28T01:21:40;91646.72;;;7.93;100.00
3464;BME280;3551;41.578;24.706;2023-02-28T01:28:10;91661.31;;;8.07;100.00
3464;BME280;3551;41.578;24.706;2023-02-28T01:40:41;91661.03;;;8.15;100.00
3464;BME280;3551;41.578;24.706;2023-02-28T01:43:58;91666.75;;;8.17;100.00
3464;BME280;3551;41.578;24.706;2023-02-28T01:46:42;91665.25;;;8.16;100.00
3464;BME280;3551;41.578;24.706;2023-02-28T01:49:55;91668.44;;;7.96;100.00
3464;BME280;3551;41.578;24.706;2023-02-28T01:52:47;91663.94;;;8.03;100.00
3464;BME280;3551;41.578;24.706;2023-02-28T02:05:23;91660.13;;;8.01;100.00
3464;BME280;3551;41.578;24.706;2023-02-28T02:08:17;91649.59;;;8.11;100.00
3464;BME280;3551;41.578;24.706;2023-02-28T02:11:29;91653.06;;;8.15;100.00
3464;BME280;3551;41.578;24.706;2023-02-28T02:14:38;91662.19;;;8.14;100.00
3464;BME280;3551;41.578;24.706;2023-02-28T02:17:25;91668.25;;;8.11;100.00
3464;BME280;3551;41.578;24.706;2023-02-28T02:40:34;91687.91;;;8.03;100.00
3464;BME280;3551;41.578;24.706;2023-02-28T02:43:47;91686.41;;;8.06;100.00
3464;BME280;3551;41.578;24.706;2023-02-28T02:47:05;91695.13;;;8.03;100.00
3464;BME280;3551;41.578;24.706;2023-02-28T02:53:24;91690.06;;;7.90;100.00
3464;BME280;3551;41.578;24.706;2023-02-28T03:02:11;91677.03;;;7.85;100.00
3464;BME280;3551;41.578;24.706;2023-02-28T03:04:56;91683.41;;;8.07;100.00
3464;BME280;3551;41.578;24.706;2023-02-28T03:07:58;91682.19;;;8.01;100.00
3464;BME280;3551;41.578;24.706;2023-02-28T03:11:13;91679.84;;;7.96;100.00
3464;BME280;3551;41.578;24.706;2023-02-28T03:14:16;91687.19;;;8.06;100.00
3464;BME280;3551;41.578;24.706;2023-02-28T03:20:30;91689.91;;;8.10;100.00
3464;BME280;3551;41.578;24.706;2023-02-28T03:23:33;91690.63;;;8.07;100.00
3464;BME280;3551;41.578;24.706;2023-02-28T03:29:42;91703.81;;;8.26;100.00
3464;BME280;3551;41.578;24.706;2023-02-28T04:08:46;91700.44;;;8.29;100.00
3464;BME280;3551;41.578;24.706;2023-02-28T04:11:45;91698.97;;;8.35;100.00
3464;BME280;3551;41.578;24.706;2023-02-28T04:14:43;91708.06;;;8.30;100.00
3464;BME280;3551;41.578;24.706;2023-02-28T04:21:04;91723.47;;;8.18;100.00
3464;BME280;3551;41.578;24.706;2023-02-28T04:33:36;91719.34;;;8.24;100.00
3464;BME280;3551;41.578;24.706;2023-02-28T04:36:14;91727.09;;;8.29;100.00
3464;BME280;3551;41.578;24.706;2023-02-28T04:39:17;91722.16;;;8.31;100.00
3464;BME280;3551;41.578;24.706;2023-02-28T04:42:34;91717.88;;;8.26;100.00
3464;BME280;3551;41.578;24.706;2023-02-28T04:45:39;91721.09;;;8.09;100.00
3464;BME280;3551;41.578;24.706;2023-02-28T05:07:16;91720.28;;;7.75;100.00
3464;BME280;3551;41.578;24.706;2023-02-28T05:13:26;91722.97;;;8.09;100.00
3464;BME280;3551;41.578;24.706;2023-02-28T05:16:16;91737.63;;;8.22;100.00
3464;BME280;3551;41.578;24.706;2023-02-28T05:22:36;91736.19;;;8.28;100.00
3464;BME280;3551;41.578;24.706;2023-02-28T05:26:06;91737.97;;;8.20;100.00
3464;BME280;3551;41.578;24.706;2023-02-28T05:29:26;91741.91;;;8.30;100.00
3464;BME280;3551;41.578;24.706;2023-02-28T05:32:25;91743.53;;;8.38;100.00
3464;BME280;3551;41.578;24.706;2023-02-28T05:35:25;91749.00;;;8.19;100.00
3464;BME280;3551;41.578;24.706;2023-02-28T06:17:17;91784.88;;;8.55;100.00
3464;BME280;3551;41.578;24.706;2023-02-28T06:23:25;91783.19;;;8.76;100.00
3464;BME280;3551;41.578;24.706;2023-02-28T06:29:55;91785.25;;;8.90;100.00
3464;BME280;3551;41.578;24.706;2023-02-28T06:44:54;91779.94;;;8.93;100.00
3464;BME280;3551;41.578;24.706;2023-02-28T06:51:01;91789.72;;;9.19;100.00
3464;BME280;3551;41.578;24.706;2023-02-28T06:53:41;91779.34;;;9.11;100.00
3464;BME280;3551;41.578;24.706;2023-02-28T06:56:23;91773.63;;;9.12;100.00
3464;BME280;3551;41.578;24.706;2023-02-28T06:59:16;91773.00;;;9.26;100.00
3464;BME280;3551;41.578;24.706;2023-02-28T07:02:11;91786.34;;;9.26;100.00
3464;BME280;3551;41.578;24.706;2023-02-28T07:04:40;91790.94;;;9.29;100.00
3464;BME280;3551;41.578;24.706;2023-02-28T07:07:10;91782.53;;;9.27;100.00
3464;BME280;3551;41.578;24.706;2023-02-28T07:10:05;91778.63;;;9.17;100.00
3464;BME280;3551;41.578;24.706;2023-02-28T07:12:59;91782.63;;;8.97;100.00
3464;BME280;3551;41.578;24.706;2023-02-28T07:15:27;91784.34;;;9.16;100.00
3464;BME280;3551;41.578;24.706;2023-02-28T07:18:00;91782.16;;;9.25;100.00
3464;BME280;3551;41.578;24.706;2023-02-28T07:20:35;91778.84;;;9.38;100.00
3464;BME280;3551;41.578;24.706;2023-02-28T07:23:05;91777.50;;;9.18;100.00
3464;BME280;3551;41.578;24.706;2023-02-28T07:25:37;91766.22;;;9.35;100.00
3464;BME280;3551;41.578;24.706;2023-02-28T07:28:13;91773.56;;;9.45;100.00
3464;BME280;3551;41.578;24.706;2023-02-28T07:30:55;91775.53;;;9.55;100.00
3464;BME280;3551;41.578;24.706;2023-02-28T07:33:36;91777.84;;;9.57;100.00
3464;BME280;3551;41.578;24.706;2023-02-28T07:36:15;91781.72;;;9.63;100.00
3464;BME280;3551;41.578;24.706;2023-02-28T07:39:22;91789.00;;;9.70;100.00
3464;BME280;3551;41.578;24.706;2023-02-28T07:41:50;91781.25;;;9.57;100.00
3464;BME280;3551;41.578;24.706;2023-02-28T07:44:29;91780.59;;;9.68;100.00
3464;BME280;3551;41.578;24.706;2023-02-28T07:46:56;91773.41;;;9.79;100.00
3464;BME280;3551;41.578;24.706;2023-02-28T07:49:25;91775.72;;;9.80;100.00
3464;BME280;3551;41.578;24.706;2023-02-28T07:52:06;91775.31;;;9.75;100.00
3464;BME280;3551;41.578;24.706;2023-02-28T07:54:39;91773.38;;;9.72;100.00
3464;BME280;3551;41.578;24.706;2023-02-28T07:57:08;91771.88;;;9.74;100.00
3464;BME280;3551;41.578;24.706;2023-02-28T07:59:43;91774.94;;;9.80;100.00
3464;BME280;3551;41.578;24.706;2023-02-28T08:02:39;91774.63;;;9.88;100.00
3464;BME280;3551;41.578;24.706;2023-02-28T08:05:26;91775.78;;;9.91;100.00
3464;BME280;3551;41.578;24.706;2023-02-28T08:08:17;91777.34;;;9.99;100.00
3464;BME280;3551;41.578;24.706;2023-02-28T08:10:57;91773.19;;;10.05;100.00
3464;BME280;3551;41.578;24.706;2023-02-28T08:13:39;91790.38;;;10.07;100.00
3464;BME280;3551;41.578;24.706;2023-02-28T08:16:16;91791.25;;;10.22;100.00
3464;BME280;3551;41.578;24.706;2023-02-28T08:19:01;91789.63;;;10.10;100.00
3464;BME280;3551;41.578;24.706;2023-02-28T08:31:45;91783.53;;;10.82;100.00
3464;BME280;3551;41.578;24.706;2023-02-28T08:41:23;91783.91;;;10.84;100.00
3464;BME280;3551;41.578;24.706;2023-02-28T08:44:09;91781.97;;;10.78;100.00
3464;BME280;3551;41.578;24.706;2023-02-28T08:46:37;91785.38;;;10.67;100.00
3464;BME280;3551;41.578;24.706;2023-02-28T08:49:14;91786.16;;;10.75;100.00
3464;BME280;3551;41.578;24.706;2023-02-28T08:52:05;91785.34;;;10.60;100.00
3464;BME280;3551;41.578;24.706;2023-02-28T08:54:37;91776.25;;;10.86;100.00
3464;BME280;3551;41.578;24.706;2023-02-28T08:57:06;91781.66;;;11.07;100.00
3464;BME280;3551;41.578;24.706;2023-02-28T08:59:48;91783.59;;;11.24;100.00
3464;BME280;3551;41.578;24.706;2023-02-28T09:02:21;91787.78;;;11.04;100.00
3464;BME280;3551;41.578;24.706;2023-02-28T10:43:17;91712.38;;;10.63;100.00
3464;BME280;3551;41.578;24.706;2023-02-28T10:45:59;91700.53;;;10.64;100.00
3464;BME280;3551;41.578;24.706;2023-02-28T10:52:09;91684.47;;;10.61;100.00
3464;BME280;3551;41.578;24.706;2023-02-28T10:55:27;91705.09;;;10.60;100.00
3464;BME280;3551;41.578;24.706;2023-02-28T11:02:10;91688.63;;;10.41;100.00
3464;BME280;3551;41.578;24.706;2023-02-28T11:05:38;91684.78;;;10.35;100.00
3464;BME280;3551;41.578;24.706;2023-02-28T11:08:37;91687.06;;;10.29;100.00
3464;BME280;3551;41.578;24.706;2023-02-28T11:11:43;91695.72;;;10.08;100.00
3464;BME280;3551;41.578;24.706;2023-02-28T11:17:23;91689.94;;;9.92;100.00
3464;BME280;3551;41.578;24.706;2023-02-28T11:19:52;91687.19;;;9.75;100.00
3464;BME280;3551;41.578;24.706;2023-02-28T11:22:23;91697.41;;;9.69;100.00
3464;BME280;3551;41.578;24.706;2023-02-28T11:24:54;91691.38;;;9.79;100.00
3464;BME280;3551;41.578;24.706;2023-02-28T11:27:40;91689.78;;;9.64;100.00
3464;BME280;3551;41.578;24.706;2023-02-28T11:36:04;91687.19;;;9.75;100.00
3464;BME280;3551;41.578;24.706;2023-02-28T11:38:36;91681.47;;;9.80;100.00
3464;BME280;3551;41.578;24.706;2023-02-28T11:44:08;91690.72;;;10.00;100.00
3464;BME280;3551;41.578;24.706;2023-02-28T11:46:39;91685.59;;;9.70;100.00
3464;BME280;3551;41.578;24.706;2023-02-28T11:49:13;91687.22;;;9.85;100.00
3464;BME280;3551;41.578;24.706;2023-02-28T11:51:47;91688.91;;;10.14;100.00
3464;BME280;3551;41.578;24.706;2023-02-28T11:56:57;91680.41;;;9.98;100.00
3464;BME280;3551;41.578;24.706;2023-02-28T12:02:20;91677.69;;;9.88;100.00
3464;BME280;3551;41.578;24.706;2023-02-28T12:04:51;91673.91;;;9.92;100.00
3464;BME280;3551;41.578;24.706;2023-02-28T12:07:24;91677.88;;;10.23;100.00
3464;BME280;3551;41.578;24.706;2023-02-28T12:09:59;91673.72;;;10.40;100.00
3464;BME280;3551;41.578;24.706;2023-02-28T12:12:35;91676.09;;;10.59;100.00
3464;BME280;3551;41.578;24.706;2023-02-28T12:15:16;91679.50;;;10.63;100.00
3464;BME280;3551;41.578;24.706;2023-02-28T12:17:54;91679.53;;;10.70;100.00
3464;BME280;3551;41.578;24.706;2023-02-28T12:20:32;91673.38;;;10.62;100.00
3464;BME280;3551;41.578;24.706;2023-02-28T12:23:06;91676.47;;;10.71;100.00
3464;BME280;3551;41.578;24.706;2023-02-28T12:25:48;91670.72;;;10.62;100.00
3464;BME280;3551;41.578;24.706;2023-02-28T12:28:17;91666.16;;;10.66;100.00
3464;BME280;3551;41.578;24.706;2023-02-28T12:30:54;91672.25;;;10.60;100.00
3464;BME280;3551;41.578;24.706;2023-02-28T12:33:24;91669.59;;;10.70;100.00
3464;BME280;3551;41.578;24.706;2023-02-28T12:35:54;91668.06;;;10.66;100.00
3464;BME280;3551;41.578;24.706;2023-02-28T12:38:29;91674.16;;;10.56;100.00
3464;BME280;3551;41.578;24.706;2023-02-28T12:40:59;91663.75;;;10.26;100.00
3464;BME280;3551;41.578;24.706;2023-02-28T12:43:27;91669.50;;;10.32;100.00
3464;BME280;3551;41.578;24.706;2023-02-28T12:45:59;91663.47;;;10.56;100.00
3464;BME280;3551;41.578;24.706;2023-02-28T12:48:29;91661.53;;;10.60;100.00
3464;BME280;3551;41.578;24.706;2023-02-28T12:50:59;91658.88;;;10.53;100.00
3464;BME280;3551;41.578;24.706;2023-02-28T12:53:27;91662.72;;;10.69;100.00
3464;BME280;3551;41.578;24.706;2023-02-28T12:56:02;91669.59;;;10.70;100.00
3464;BME280;3551;41.578;24.706;2023-02-28T12:58:34;91666.91;;;10.74;100.00
3464;BME280;3551;41.578;24.706;2023-02-28T13:01:08;91657.72;;;10.54;100.00
3464;BME280;3551;41.578;24.706;2023-02-28T13:06:33;91648.94;;;10.53;100.00
3464;BME280;3551;41.578;24.706;2023-02-28T13:09:09;91647.81;;;10.61;100.00
3464;BME280;3551;41.578;24.706;2023-02-28T13:11:40;91639.78;;;10.61;100.00
3464;BME280;3551;41.578;24.706;2023-02-28T13:16:59;91637.84;;;10.55;100.00
3464;BME280;3551;41.578;24.706;2023-02-28T13:19:28;91643.16;;;10.34;100.00
3464;BME280;3551;41.578;24.706;2023-02-28T13:21:56;91645.09;;;10.33;100.00
3464;BME280;3551;41.578;24.706;2023-02-28T13:24:38;91643.53;;;10.39;100.00
3464;BME280;3551;41.578;24.706;2023-02-28T13:27:21;91642.00;;;10.31;100.00
3464;BME280;3551;41.578;24.706;2023-02-28T13:29:50;91643.19;;;10.41;100.00
3464;BME280;3551;41.578;24.706;2023-02-28T13:32:33;91641.25;;;10.38;100.00
3464;BME280;3551;41.578;24.706;2023-02-28T13:38:13;91640.88;;;10.43;100.00
3464;BME280;3551;41.578;24.706;2023-02-28T13:40:44;91639.97;;;10.07;100.00
3464;BME280;3551;41.578;24.706;2023-02-28T13:55:58;91630.47;;;10.09;100.00
3464;BME280;3551;41.578;24.706;2023-02-28T13:58:39;91630.91;;;10.15;100.00
3464;BME280;3551;41.578;24.706;2023-02-28T14:01:11;91639.72;;;10.30;100.00
3464;BME280;3551;41.578;24.706;2023-02-28T14:03:46;91641.63;;;10.40;100.00
3464;BME280;3551;41.578;24.706;2023-02-28T14:06:23;91644.31;;;10.36;100.00
3464;BME280;3551;41.578;24.706;2023-02-28T14:08:54;91644.31;;;10.33;100.00
3464;BME280;3551;41.578;24.706;2023-02-28T14:11:27;91633.56;;;10.22;100.00
3464;BME280;3551;41.578;24.706;2023-02-28T14:13:57;91639.34;;;10.35;100.00
3464;BME280;3551;41.578;24.706;2023-02-28T14:16:40;91635.41;;;10.04;100.00
3464;BME280;3551;41.578;24.706;2023-02-28T14:19:13;91639.66;;;10.19;100.00
3464;BME280;3551;41.578;24.706;2023-02-28T14:21:45;91637.44;;;10.32;100.00
3464;BME280;3551;41.578;24.706;2023-02-28T14:30:36;91634.16;;;9.84;100.00
3464;BME280;3551;41.578;24.706;2023-02-28T14:33:14;91640.34;;;9.95;100.00
3464;BME280;3551;41.578;24.706;2023-02-28T14:35:51;91635.00;;;10.02;100.00
3464;BME280;3551;41.578;24.706;2023-02-28T14:38:23;91636.63;;;10.21;100.00
3464;BME280;3551;41.578;24.706;2023-02-28T14:40:54;91640.47;;;10.23;100.00
3464;BME280;3551;41.578;24.706;2023-02-28T14:43:22;91633.22;;;10.27;100.00
3464;BME280;3551;41.578;24.706;2023-02-28T14:45:51;91639.72;;;10.30;100.00
3464;BME280;3551;41.578;24.706;2023-02-28T14:48:19;91640.84;;;10.25;100.00
3464;BME280;3551;41.578;24.706;2023-02-28T14:50:56;91646.84;;;10.04;100.00
3464;BME280;3551;41.578;24.706;2023-02-28T14:53:27;91637.72;;;10.12;100.00
3464;BME280;3551;41.578;24.706;2023-02-28T14:55:56;91646.88;;;10.11;100.00
3464;BME280;3551;41.578;24.706;2023-02-28T14:58:25;91647.22;;;9.99;100.00
3464;BME280;3551;41.578;24.706;2023-02-28T15:00:55;91646.03;;;9.93;100.00
3464;BME280;3551;41.578;24.706;2023-02-28T15:03:27;91646.22;;;9.53;100.00
3464;BME280;3551;41.578;24.706;2023-02-28T15:05:56;91653.19;;;9.68;100.00
3464;BME280;3551;41.578;24.706;2023-02-28T15:08:24;91641.81;;;9.85;100.00
3464;BME280;3551;41.578;24.706;2023-02-28T15:10:54;91648.50;;;9.54;100.00
3464;BME280;3551;41.578;24.706;2023-02-28T15:13:22;91644.13;;;9.22;100.00
3464;BME280;3551;41.578;24.706;2023-02-28T15:15:50;91643.78;;;9.27;100.00
3464;BME280;3551;41.578;24.706;2023-02-28T15:18:24;91640.63;;;9.14;100.00
3464;BME280;3551;41.578;24.706;2023-02-28T15:21:02;91649.19;;;9.41;100.00
3464;BME280;3551;41.578;24.706;2023-02-28T15:24:03;91652.16;;;9.29;100.00
3464;BME280;3551;41.578;24.706;2023-02-28T15:26:40;91644.91;;;9.26;100.00
3464;BME280;3551;41.578;24.706;2023-02-28T15:29:41;91647.56;;;9.26;100.00
3464;BME280;3551;41.578;24.706;2023-02-28T15:32:20;91649.16;;;9.30;100.00
3464;BME280;3551;41.578;24.706;2023-02-28T15:34:48;91641.91;;;9.31;100.00
3464;BME280;3551;41.578;24.706;2023-02-28T15:37:28;91643.56;;;9.53;100.00
3464;BME280;3551;41.578;24.706;2023-02-28T15:39:56;91647.59;;;9.29;100.00
3464;BME280;3551;41.578;24.706;2023-02-28T15:42:27;91645.00;;;9.40;100.00
3464;BME280;3551;41.578;24.706;2023-02-28T15:44:56;91651.22;;;9.61;100.00
3464;BME280;3551;41.578;24.706;2023-02-28T15:47:23;91646.59;;;9.55;100.00
3464;BME280;3551;41.578;24.706;2023-02-28T15:49:51;91649.63;;;9.46;100.00
3464;BME280;3551;41.578;24.706;2023-02-28T15:52:19;91643.31;;;9.14;100.00
3464;BME280;3551;41.578;24.706;2023-02-28T15:54:46;91663.25;;;8.83;100.00
3464;BME280;3551;41.578;24.706;2023-02-28T15:57:14;91656.47;;;8.89;100.00
3464;BME280;3551;41.578;24.706;2023-02-28T15:59:44;91659.19;;;9.00;100.00
3464;BME280;3551;41.578;24.706;2023-02-28T16:02:17;91659.44;;;8.84;100.00
3464;BME280;3551;41.578;24.706;2023-02-28T16:04:54;91655.88;;;9.10;100.00
3464;BME280;3551;41.578;24.706;2023-02-28T16:07:21;91667.28;;;9.07;100.00
3464;BME280;3551;41.578;24.706;2023-02-28T16:09:49;91665.88;;;9.24;100.00
3464;BME280;3551;41.578;24.706;2023-02-28T16:12:15;91662.81;;;9.25;100.00
3464;BME280;3551;41.578;24.706;2023-02-28T16:14:42;91667.72;;;9.20;100.00
3464;BME280;3551;41.578;24.706;2023-02-28T16:17:13;91670.72;;;9.08;100.00
3464;BME280;3551;41.578;24.706;2023-02-28T16:19:45;91666.25;;;9.26;100.00
3464;BME280;3551;41.578;24.706;2023-02-28T16:22:11;91658.91;;;9.12;100.00
3464;BME280;3551;41.578;24.706;2023-02-28T16:24:38;91653.66;;;9.23;100.00
3464;BME280;3551;41.578;24.706;2023-02-28T16:27:05;91662.09;;;9.32;100.00
3464;BME280;3551;41.578;24.706;2023-02-28T16:29:33;91659.53;;;9.46;100.00
3464;BME280;3551;41.578;24.706;2023-02-28T16:32:01;91666.44;;;9.50;100.00
3464;BME280;3551;41.578;24.706;2023-02-28T16:34:30;91669.53;;;9.59;100.00
3464;BME280;3551;41.578;24.706;2023-02-28T16:36:58;91660.78;;;9.66;100.00
3464;BME280;3551;41.578;24.706;2023-02-28T16:39:24;91663.84;;;9.65;100.00
3464;BME280;3551;41.578;24.706;2023-02-28T16:41:51;91664.66;;;9.76;100.00
3464;BME280;3551;41.578;24.706;2023-02-28T16:44:21;91666.16;;;9.70;100.00
3464;BME280;3551;41.578;24.706;2023-02-28T16:46:51;91669.22;;;9.75;100.00
3464;BME280;3551;41.578;24.706;2023-02-28T16:49:18;91669.63;;;9.81;100.00
3464;BME280;3551;41.578;24.706;2023-02-28T16:51:44;91668.47;;;9.78;100.00
3464;BME280;3551;41.578;24.706;2023-02-28T16:54:12;91673.06;;;9.74;100.00
3464;BME280;3551;41.578;24.706;2023-02-28T16:56:39;91670.75;;;9.76;100.00
3464;BME280;3551;41.578;24.706;2023-02-28T16:59:08;91677.97;;;9.65;100.00
3464;BME280;3551;41.578;24.706;2023-02-28T17:01:34;91676.47;;;9.71;100.00
3464;BME280;3551;41.578;24.706;2023-02-28T17:04:01;91676.41;;;9.64;100.00
3464;BME280;3551;41.578;24.706;2023-02-28T17:06:28;91680.53;;;9.51;100.00
3464;BME280;3551;41.578;24.706;2023-02-28T17:08:56;91680.53;;;9.51;100.00
3464;BME280;3551;41.578;24.706;2023-02-28T17:11:24;91686.22;;;9.46;100.00
3464;BME280;3551;41.578;24.706;2023-02-28T17:13:51;91677.97;;;9.65;100.00
3464;BME280;3551;41.578;24.706;2023-02-28T17:16:20;91675.66;;;9.60;100.00
3464;BME280;3551;41.578;24.706;2023-02-28T17:18:49;91673.72;;;9.57;100.00
3464;BME280;3551;41.578;24.706;2023-02-28T17:21:16;91681.31;;;9.51;100.00
3464;BME280;3551;41.578;24.706;2023-02-28T17:23:43;91680.97;;;9.63;100.00
3464;BME280;3551;41.578;24.706;2023-02-28T17:26:12;91672.97;;;9.60;100.00
3464;BME280;3551;41.578;24.706;2023-02-28T17:28:40;91673.34;;;9.58;100.00
3464;BME280;3551;41.578;24.706;2023-02-28T17:31:07;91679.94;;;9.21;100.00
3464;BME280;3551;41.578;24.706;2023-02-28T17:33:34;91673.50;;;8.78;100.00
3464;BME280;3551;41.578;24.706;2023-02-28T17:36:00;91672.84;;;8.91;100.00
3464;BME280;3551;41.578;24.706;2023-02-28T17:38:27;91671.44;;;9.04;100.00
3464;BME280;3551;41.578;24.706;2023-02-28T17:40:54;91670.09;;;8.81;100.00
3464;BME280;3551;41.578;24.706;2023-02-28T17:43:22;91676.84;;;8.31;100.00
3464;BME280;3551;41.578;24.706;2023-02-28T17:45:50;91676.25;;;7.81;100.00
3464;BME280;3551;41.578;24.706;2023-02-28T17:48:17;91680.75;;;7.77;100.00
3464;BME280;3551;41.578;24.706;2023-02-28T17:50:44;91685.34;;;7.80;100.00
3464;BME280;3551;41.578;24.706;2023-02-28T17:53:10;91690.94;;;8.02;100.00
3464;BME280;3551;41.578;24.706;2023-02-28T17:55:37;91681.22;;;8.16;100.00
3464;BME280;3551;41.578;24.706;2023-02-28T17:58:05;91683.31;;;8.30;100.00
3464;BME280;3551;41.578;24.706;2023-02-28T18:00:32;91682.31;;;8.45;100.00
3464;BME280;3551;41.578;24.706;2023-02-28T18:03:00;91678.53;;;8.46;100.00
3464;BME280;3551;41.578;24.706;2023-02-28T18:05:26;91677.78;;;8.45;100.00
3464;BME280;3551;41.578;24.706;2023-02-28T18:07:53;91673.94;;;8.43;100.00
3464;BME280;3551;41.578;24.706;2023-02-28T18:10:20;91674.63;;;8.36;100.00
3464;BME280;3551;41.578;24.706;2023-02-28T18:12:47;91671.28;;;8.46;100.00
3464;BME280;3551;41.578;24.706;2023-02-28T18:15:14;91668.06;;;8.64;100.00
3464;BME280;3551;41.578;24.706;2023-02-28T18:17:41;91666.59;;;8.73;100.00
3464;BME280;3551;41.578;24.706;2023-02-28T18:20:10;91661.69;;;8.75;100.00
3464;BME280;3551;41.578;24.706;2023-02-28T18:22:37;91662.41;;;8.76;100.00
3464;BME280;3551;41.578;24.706;2023-02-28T18:25:04;91663.00;;;8.95;100.00
3464;BME280;3551;41.578;24.706;2023-02-28T18:27:31;91660.38;;;9.02;100.00
3464;BME280;3551;41.578;24.706;2023-02-28T18:29:57;91656.44;;;8.86;100.00
3464;BME280;3551;41.578;24.706;2023-02-28T18:32:24;91663.41;;;8.57;100.00
3464;BME280;3551;41.578;24.706;2023-02-28T18:34:51;91667.47;;;8.44;100.00
3464;BME280;3551;41.578;24.706;2023-02-28T18:37:19;91666.13;;;8.64;100.00
3464;BME280;3551;41.578;24.706;2023-02-28T18:39:45;91673.16;;;8.42;100.00
3464;BME280;3551;41.578;24.706;2023-02-28T18:42:12;91675.94;;;8.53;100.00
3464;BME280;3551;41.578;24.706;2023-02-28T18:44:39;91672.31;;;8.72;100.00
3464;BME280;3551;41.578;24.706;2023-02-28T18:47:05;91670.91;;;8.88;100.00
3464;BME280;3551;41.578;24.706;2023-02-28T18:49:32;91672.22;;;8.65;100.00
3464;BME280;3551;41.578;24.706;2023-02-28T18:51:59;91684.66;;;8.50;100.00
3464;BME280;3551;41.578;24.706;2023-02-28T18:54:27;91688.69;;;8.74;100.00
3464;BME280;3551;41.578;24.706;2023-02-28T18:56:54;91688.78;;;8.84;100.00
3464;BME280;3551;41.578;24.706;2023-02-28T18:59:21;91681.84;;;8.76;100.00
3464;BME280;3551;41.578;24.706;2023-02-28T19:01:47;91675.81;;;8.83;100.00
3464;BME280;3551;41.578;24.706;2023-02-28T19:04:14;91672.66;;;8.70;100.00
3464;BME280;3551;41.578;24.706;2023-02-28T19:06:41;91674.72;;;8.87;100.00
3464;BME280;3551;41.578;24.706;2023-02-28T19:09:07;91668.25;;;8.88;100.00
3464;BME280;3551;41.578;24.706;2023-02-28T19:11:35;91672.50;;;8.96;100.00
3464;BME280;3551;41.578;24.706;2023-02-28T19:14:02;91668.31;;;8.95;100.00
3464;BME280;3551;41.578;24.706;2023-02-28T19:16:28;91671.03;;;9.02;100.00
3464;BME280;3551;41.578;24.706;2023-02-28T19:18:55;91675.97;;;9.00;100.00
3464;BME280;3551;41.578;24.706;2023-02-28T19:21:22;91673.66;;;8.95;100.00
3464;BME280;3551;41.578;24.706;2023-02-28T19:23:50;91670.69;;;9.04;100.00
3464;BME280;3551;41.578;24.706;2023-02-28T19:26:17;91674.53;;;9.14;100.00
3464;BME280;3551;41.578;24.706;2023-02-28T19:28:46;91673.38;;;9.08;100.00
3464;BME280;3551;41.578;24.706;2023-02-28T19:31:13;91669.88;;;8.56;100.00
3464;BME280;3551;41.578;24.706;2023-02-28T19:33:40;91682.19;;;8.31;100.00
3464;BME280;3551;41.578;24.706;2023-02-28T19:36:07;91678.69;;;8.60;100.00
3464;BME280;3551;41.578;24.706;2023-02-28T19:38:35;91685.13;;;8.59;100.00
3464;BME280;3551;41.578;24.706;2023-02-28T19:41:02;91686.41;;;8.72;100.00
3464;BME280;3551;41.578;24.706;2023-02-28T19:43:29;91683.53;;;8.91;100.00
3464;BME280;3551;41.578;24.706;2023-02-28T19:45:57;91687.00;;;8.99;100.00
3464;BME280;3551;41.578;24.706;2023-02-28T19:48:24;91684.06;;;9.11;100.00
3464;BME280;3551;41.578;24.706;2023-02-28T19:50:55;91680.56;;;9.03;100.00
3464;BME280;3551;41.578;24.706;2023-02-28T19:53:21;91689.16;;;8.83;100.00
3464;BME280;3551;41.578;24.706;2023-02-28T19:55:48;91688.50;;;8.96;100.00
3464;BME280;3551;41.578;24.706;2023-02-28T19:58:16;91686.22;;;8.95;100.00
3464;BME280;3551;41.578;24.706;2023-02-28T20:00:44;91686.16;;;8.88;100.00
3464;BME280;3551;41.578;24.706;2023-02-28T20:03:12;91686.25;;;8.98;100.00
3464;BME280;3551;41.578;24.706;2023-02-28T20:05:38;91684.66;;;8.90;100.00
3464;BME280;3551;41.578;24.706;2023-02-28T20:08:05;91686.25;;;8.98;100.00
3464;BME280;3551;41.578;24.706;2023-02-28T20:10:32;91695.84;;;9.07;100.00
3464;BME280;3551;41.578;24.706;2023-02-28T20:12:59;91691.91;;;8.93;100.00
3464;BME280;3551;41.578;24.706;2023-02-28T20:15:25;91704.03;;;8.87;100.00
3464;BME280;3551;41.578;24.706;2023-02-28T20:17:52;91695.34;;;8.94;100.00
3464;BME280;3551;41.578;24.706;2023-02-28T20:20:23;91693.47;;;8.94;100.00
3464;BME280;3551;41.578;24.706;2023-02-28T20:22:49;91691.19;;;8.96;100.00
3464;BME280;3551;41.578;24.706;2023-02-28T20:25:16;91703.22;;;8.80;100.00
3464;BME280;3551;41.578;24.706;2023-02-28T20:27:42;91708.25;;;8.88;100.00
3464;BME280;3551;41.578;24.706;2023-02-28T20:30:10;91711.97;;;8.77;100.00
3464;BME280;3551;41.578;24.706;2023-02-28T20:32:36;91713.19;;;8.86;100.00
3464;BME280;3551;41.578;24.706;2023-02-28T20:35:04;91707.44;;;8.84;100.00
3464;BME280;3551;41.578;24.706;2023-02-28T20:37:32;91710.19;;;8.91;100.00
3464;BME280;3551;41.578;24.706;2023-02-28T20:39:59;91718.47;;;8.79;100.00
3464;BME280;3551;41.578;24.706;2023-02-28T20:42:28;91716.91;;;8.75;100.00
3464;BME280;3551;41.578;24.706;2023-02-28T20:44:55;91721.03;;;8.69;100.00